createdAt,value
2023-05-18T00:00:35.320Z,1.30
2023-05-18T00:03:05.457Z,1.13
2023-05-18T00:05:34.367Z,1.30
2023-05-18T00:08:03.167Z,1.43
2023-05-18T00:10:31.482Z,1.40
2023-05-18T00:12:59.673Z,1.50
2023-05-18T00:15:28.101Z,1.80
2023-05-18T00:17:57.218Z,1.63
2023-05-18T00:20:27.648Z,1.20
2023-05-18T00:22:55.992Z,1.10
2023-05-18T00:25:24.595Z,1.00
2023-05-18T00:27:53.019Z,0.87
2023-05-18T00:30:21.636Z,0.90
2023-05-18T00:32:49.891Z,0.90
2023-05-18T00:35:18.104Z,0.70
2023-05-18T00:37:47.665Z,0.70
2023-05-18T00:40:16.100Z,0.50
2023-05-18T00:42:44.270Z,0.50
2023-05-18T00:45:12.882Z,0.70
2023-05-18T00:47:41.152Z,0.60
2023-05-18T00:50:10.071Z,0.40
2023-05-18T00:52:39.619Z,0.50
2023-05-18T00:55:12.414Z,0.80
2023-05-18T00:57:42.154Z,0.70
2023-05-18T01:00:13.852Z,0.60
2023-05-18T01:02:45.477Z,0.50
2023-05-18T01:05:14.312Z,0.50
2023-05-18T01:07:43.903Z,0.70
2023-05-18T01:10:16.236Z,0.73
2023-05-18T01:12:50.755Z,0.60
2023-05-18T01:15:21.196Z,0.57
2023-05-18T01:18:10.516Z,0.50
2023-05-18T01:20:48.761Z,0.57
2023-05-18T01:23:44.918Z,0.50
2023-05-18T01:26:17.026Z,0.50
2023-05-18T01:28:47.461Z,0.53
2023-05-18T01:31:16.628Z,0.60
2023-05-18T01:33:45.113Z,0.63
2023-05-18T01:36:13.411Z,0.60
2023-05-18T01:38:44.073Z,0.80
2023-05-18T01:41:19.225Z,0.80
2023-05-18T01:43:54.520Z,0.60
2023-05-18T01:46:41.880Z,0.70
2023-05-18T01:49:17.929Z,0.60
2023-05-18T01:51:48.170Z,1.00
2023-05-18T01:54:20.077Z,0.90
2023-05-18T01:56:51.955Z,0.73
2023-05-18T01:59:20.724Z,0.60
2023-05-18T02:01:49.132Z,0.67
2023-05-18T02:04:17.488Z,0.70
2023-05-18T02:06:45.995Z,0.47
2023-05-18T02:09:14.215Z,0.70
2023-05-18T02:11:42.423Z,0.70
2023-05-18T02:14:12.121Z,0.70
2023-05-18T02:16:40.413Z,0.77
2023-05-18T02:19:08.747Z,0.93
2023-05-18T02:21:37.769Z,0.60
2023-05-18T02:24:06.826Z,0.83
2023-05-18T02:26:34.986Z,0.90
2023-05-18T02:29:03.243Z,0.93
2023-05-18T02:31:33.698Z,0.80
2023-05-18T02:34:01.958Z,0.70
2023-05-18T02:36:37.626Z,0.70
2023-05-18T02:39:06.667Z,0.83
2023-05-18T02:41:35.238Z,0.80
2023-05-18T02:44:03.521Z,1.00
2023-05-18T02:46:33.826Z,0.90
2023-05-18T02:49:02.310Z,0.90
2023-05-18T02:51:31.555Z,0.73
2023-05-18T02:53:59.714Z,0.77
2023-05-18T02:56:28.711Z,1.60
2023-05-18T02:58:58.270Z,0.80
2023-05-18T03:01:27.411Z,0.83
2023-05-18T03:03:58.522Z,1.10
2023-05-18T03:06:27.467Z,0.90
2023-05-18T03:08:55.749Z,0.87
2023-05-18T03:11:24.122Z,0.60
2023-05-18T03:13:52.315Z,1.23
2023-05-18T03:16:20.657Z,0.70
2023-05-18T03:18:49.528Z,1.13
2023-05-18T03:21:20.158Z,0.67
2023-05-18T03:23:48.763Z,0.77
2023-05-18T03:26:17.024Z,0.90
2023-05-18T03:28:45.219Z,0.90
2023-05-18T03:31:13.556Z,0.73
2023-05-18T03:33:41.925Z,1.00
2023-05-18T03:36:10.745Z,1.07
2023-05-18T03:38:41.728Z,1.10
2023-05-18T03:41:09.979Z,0.90
2023-05-18T03:43:38.370Z,0.93
2023-05-18T03:46:06.698Z,1.20
2023-05-18T03:48:34.916Z,0.90
2023-05-18T03:51:03.069Z,0.80
2023-05-18T03:53:31.464Z,0.80
2023-05-18T03:56:01.318Z,0.80
2023-05-18T03:58:29.633Z,0.97
2023-05-18T04:00:57.904Z,0.87
2023-05-18T04:03:27.205Z,1.00
2023-05-18T04:05:55.918Z,0.60
2023-05-18T04:08:25.483Z,0.90
2023-05-18T04:10:53.914Z,0.67
2023-05-18T04:13:23.399Z,0.70
2023-05-18T04:15:51.784Z,0.63
2023-05-18T04:18:20.016Z,0.80
2023-05-18T04:20:48.294Z,0.67
2023-05-18T04:23:16.989Z,0.93
2023-05-18T04:25:45.188Z,0.60
2023-05-18T04:28:13.394Z,0.90
2023-05-18T04:30:43.048Z,0.90
2023-05-18T04:33:12.906Z,0.90
2023-05-18T04:35:41.232Z,0.80
2023-05-18T04:38:10.826Z,0.90
2023-05-18T04:40:42.612Z,0.77
2023-05-18T04:43:11.482Z,0.90
2023-05-18T04:45:39.714Z,0.60
2023-05-18T04:48:09.479Z,0.90
2023-05-18T04:50:38.224Z,0.90
2023-05-18T04:53:07.926Z,0.80
2023-05-18T04:55:36.359Z,0.90
2023-05-18T04:58:04.978Z,0.93
2023-05-18T05:00:33.171Z,0.70
2023-05-18T05:03:01.549Z,0.70
2023-05-18T05:05:31.611Z,0.80
2023-05-18T05:08:00.138Z,1.73
2023-05-18T05:10:29.191Z,0.83
2023-05-18T05:12:57.541Z,0.77
2023-05-18T05:15:25.833Z,1.00
2023-05-18T05:17:54.300Z,1.20
2023-05-18T05:20:22.743Z,0.60
2023-05-18T05:22:52.394Z,0.80
2023-05-18T05:25:20.706Z,1.00
2023-05-18T05:27:48.906Z,0.80
2023-05-18T05:30:17.184Z,0.80
2023-05-18T05:32:45.591Z,0.80
2023-05-18T05:35:13.905Z,0.80
2023-05-18T05:37:42.271Z,1.00
2023-05-18T05:40:13.258Z,0.90
2023-05-18T05:42:41.923Z,0.90
2023-05-18T05:45:10.937Z,0.97
2023-05-18T05:47:39.313Z,1.13
2023-05-18T05:50:08.447Z,0.87
2023-05-18T05:52:36.613Z,0.70
2023-05-18T05:55:05.398Z,1.20
2023-05-18T05:57:34.959Z,0.90
2023-05-18T06:00:04.944Z,1.10
2023-05-18T06:02:34.294Z,0.83
2023-05-18T06:05:02.663Z,0.90
2023-05-18T06:07:31.402Z,0.60
2023-05-18T06:09:59.760Z,0.80
2023-05-18T06:12:27.969Z,0.90
2023-05-18T06:14:58.595Z,0.93
2023-05-18T06:17:27.976Z,1.00
2023-05-18T06:19:56.392Z,0.80
2023-05-18T06:22:25.242Z,1.07
2023-05-18T06:24:53.455Z,0.97
2023-05-18T06:27:21.673Z,0.73
2023-05-18T06:29:49.857Z,0.80
2023-05-18T06:32:20.104Z,0.77
2023-05-18T06:34:50.681Z,0.97
2023-05-18T06:37:19.931Z,0.90
2023-05-18T06:39:48.155Z,1.20
2023-05-18T06:42:16.333Z,0.80
2023-05-18T06:44:45.111Z,0.90
2023-05-18T06:47:13.383Z,0.90
2023-05-18T06:49:42.967Z,0.63
2023-05-18T06:52:11.343Z,1.00
2023-05-18T06:54:39.503Z,0.80
2023-05-18T06:57:08.074Z,0.83
2023-05-18T06:59:36.226Z,1.10
2023-05-18T07:02:04.728Z,0.70
2023-05-18T07:04:32.928Z,0.90
2023-05-18T07:07:02.720Z,0.80
2023-05-18T07:09:30.944Z,0.73
2023-05-18T07:11:59.161Z,0.80
2023-05-18T07:14:27.560Z,0.80
2023-05-18T07:16:55.787Z,1.03
2023-05-18T07:19:24.026Z,0.80
2023-05-18T07:21:52.835Z,0.80
2023-05-18T07:24:22.411Z,0.70
2023-05-18T07:26:50.557Z,0.83
2023-05-18T07:29:18.875Z,0.90
2023-05-18T07:31:47.140Z,0.90
2023-05-18T07:34:15.337Z,0.80
2023-05-18T07:36:43.770Z,0.93
2023-05-18T07:39:19.398Z,0.90
2023-05-18T07:41:50.179Z,0.83
2023-05-18T07:44:18.341Z,0.80
2023-05-18T07:46:46.781Z,0.80
2023-05-18T07:49:15.152Z,0.90
2023-05-18T07:51:43.526Z,0.80
2023-05-18T07:54:11.733Z,0.70
2023-05-18T07:56:40.774Z,0.80
2023-05-18T07:59:11.281Z,0.60
2023-05-18T08:01:39.979Z,0.70
2023-05-18T08:04:08.421Z,0.53
2023-05-18T08:06:36.811Z,0.77
2023-05-18T08:09:05.370Z,0.90
2023-05-18T08:11:34.634Z,0.87
2023-05-18T08:14:02.878Z,0.60
2023-05-18T08:16:37.155Z,0.70
2023-05-18T08:19:05.746Z,0.93
2023-05-18T08:21:34.585Z,0.90
2023-05-18T08:24:04.301Z,0.80
2023-05-18T08:26:32.698Z,0.80
2023-05-18T08:29:00.954Z,0.73
2023-05-18T08:31:29.107Z,0.87
2023-05-18T08:33:59.758Z,0.93
2023-05-18T08:36:28.092Z,0.63
2023-05-18T08:38:56.391Z,0.70
2023-05-18T08:41:30.312Z,0.70
2023-05-18T08:44:03.216Z,0.67
2023-05-18T08:46:35.992Z,0.83
2023-05-18T08:49:06.971Z,1.53
2023-05-18T08:51:38.264Z,1.00
2023-05-18T08:54:07.321Z,0.90
2023-05-18T08:56:36.096Z,0.70
2023-05-18T08:59:08.044Z,0.80
2023-05-18T09:01:37.189Z,0.97
2023-05-18T09:04:08.201Z,1.10
2023-05-18T09:06:36.803Z,1.00
2023-05-18T09:09:06.647Z,0.60
2023-05-18T09:11:36.090Z,0.60
2023-05-18T09:14:04.334Z,0.70
2023-05-18T09:16:33.300Z,0.73
2023-05-18T09:19:02.100Z,0.80
2023-05-18T09:21:33.855Z,0.73
2023-05-18T09:24:02.496Z,0.50
2023-05-18T09:26:31.002Z,1.07
2023-05-18T09:29:00.021Z,0.70
2023-05-18T09:31:28.613Z,0.50
2023-05-18T09:33:59.722Z,0.60
2023-05-18T09:36:29.731Z,0.50
2023-05-18T09:38:59.513Z,0.60
2023-05-18T09:41:28.736Z,0.60
2023-05-18T09:43:56.964Z,0.90
2023-05-18T09:46:25.406Z,0.60
2023-05-18T09:48:55.413Z,0.80
2023-05-18T09:51:25.552Z,0.80
2023-05-18T09:53:56.168Z,1.03
2023-05-18T09:56:27.019Z,0.67
2023-05-18T09:58:55.848Z,0.70
2023-05-18T10:01:24.289Z,0.60
2023-05-18T10:03:53.439Z,0.93
2023-05-18T10:06:27.721Z,0.60
2023-05-18T10:08:58.754Z,0.70
2023-05-18T10:11:32.989Z,0.60
2023-05-18T10:14:01.543Z,0.60
2023-05-18T10:16:30.690Z,0.60
2023-05-18T10:19:00.993Z,0.70
2023-05-18T10:21:32.180Z,0.80
2023-05-18T10:24:02.460Z,0.77
2023-05-18T10:26:36.337Z,0.50
2023-05-18T10:29:06.160Z,0.70
2023-05-18T10:31:38.407Z,0.73
2023-05-18T10:34:07.430Z,0.83
2023-05-18T10:36:38.180Z,0.70
2023-05-18T10:39:07.220Z,0.70
2023-05-18T10:41:37.977Z,0.80
2023-05-18T10:44:07.639Z,0.50
2023-05-18T10:46:37.081Z,0.70
2023-05-18T10:49:13.045Z,0.70
2023-05-18T10:51:43.694Z,0.83
2023-05-18T10:54:14.140Z,0.80
2023-05-18T10:56:47.854Z,0.60
2023-05-18T10:59:18.462Z,0.80
2023-05-18T11:01:48.060Z,0.60
2023-05-18T11:04:16.474Z,0.77
2023-05-18T11:06:44.961Z,0.80
2023-05-18T11:09:24.813Z,0.60
2023-05-18T11:11:57.746Z,0.90
2023-05-18T11:14:31.374Z,0.73
2023-05-18T11:17:20.130Z,0.80
2023-05-18T11:20:17.390Z,0.67
2023-05-18T11:22:51.482Z,0.73
2023-05-18T11:25:37.709Z,0.40
2023-05-18T11:28:09.821Z,0.90
2023-05-18T11:30:50.094Z,0.70
2023-05-18T11:33:26.770Z,0.70
2023-05-18T11:35:59.869Z,0.60
2023-05-18T11:38:48.142Z,0.80
2023-05-18T11:41:34.127Z,0.90
2023-05-18T11:44:17.308Z,0.70
2023-05-18T11:46:57.466Z,0.60
2023-05-18T11:49:27.567Z,0.60
2023-05-18T11:52:03.369Z,0.50
2023-05-18T11:54:36.509Z,0.60
2023-05-18T11:57:05.427Z,0.60
2023-05-18T11:59:38.278Z,0.70
2023-05-18T12:02:11.771Z,0.70
2023-05-18T12:04:48.284Z,0.63
2023-05-18T12:07:18.799Z,0.50
2023-05-18T12:09:47.638Z,0.60
2023-05-18T12:12:20.261Z,0.90
2023-05-18T12:14:55.920Z,0.63
2023-05-18T12:17:24.670Z,0.70
2023-05-18T12:19:53.083Z,0.60
2023-05-18T12:22:21.439Z,0.70
2023-05-18T12:24:53.884Z,0.80
2023-05-18T12:27:23.028Z,0.63
2023-05-18T12:29:52.762Z,0.40
2023-05-18T12:32:21.057Z,0.80
2023-05-18T12:34:49.292Z,0.70
2023-05-18T12:37:17.947Z,0.67
2023-05-18T12:39:46.186Z,0.73
2023-05-18T12:42:16.174Z,0.60
2023-05-18T12:44:45.459Z,0.60
2023-05-18T12:47:16.100Z,0.57
2023-05-18T12:49:50.041Z,0.50
2023-05-18T12:52:18.473Z,0.60
2023-05-18T12:54:58.670Z,0.90
2023-05-18T12:57:27.375Z,0.80
2023-05-18T12:59:56.757Z,0.60
2023-05-18T13:02:32.181Z,0.60
2023-05-18T13:05:05.157Z,0.70
2023-05-18T13:07:34.495Z,0.60
2023-05-18T13:10:03.560Z,0.80
2023-05-18T13:12:40.836Z,0.70
2023-05-18T13:15:14.303Z,0.70
2023-05-18T13:18:01.315Z,0.67
2023-05-18T13:20:36.459Z,0.60
2023-05-18T13:23:06.647Z,0.60
2023-05-18T13:25:35.133Z,0.57
2023-05-18T13:28:03.688Z,0.70
2023-05-18T13:30:32.423Z,0.70
2023-05-18T13:33:02.218Z,0.70
2023-05-18T13:35:30.681Z,0.50
2023-05-18T13:37:59.166Z,0.60
2023-05-18T13:40:27.553Z,0.60
2023-05-18T13:42:55.796Z,0.60
2023-05-18T13:45:24.388Z,0.70
2023-05-18T13:47:53.741Z,0.70
2023-05-18T13:50:23.930Z,0.50
2023-05-18T13:52:52.372Z,0.50
2023-05-18T13:55:21.036Z,0.50
2023-05-18T13:57:49.235Z,0.60
2023-05-18T14:00:18.050Z,0.50
2023-05-18T14:02:46.703Z,0.60
2023-05-18T14:05:16.435Z,0.70
2023-05-18T14:07:46.210Z,0.80
2023-05-18T14:10:14.780Z,0.77
2023-05-18T14:12:43.502Z,0.80
2023-05-18T14:15:14.037Z,0.50
2023-05-18T14:17:42.695Z,0.60
2023-05-18T14:20:12.124Z,0.60
2023-05-18T14:22:40.809Z,0.63
2023-05-18T14:25:10.937Z,0.83
2023-05-18T14:27:39.214Z,0.70
2023-05-18T14:30:08.807Z,1.13
2023-05-18T14:32:37.202Z,1.20
2023-05-18T14:35:06.354Z,0.60
2023-05-18T14:37:34.629Z,0.70
2023-05-18T14:40:02.802Z,1.00
2023-05-18T14:42:32.624Z,0.80
2023-05-18T14:45:01.004Z,1.10
2023-05-18T14:47:29.286Z,0.67
2023-05-18T14:49:57.648Z,0.80
2023-05-18T14:52:26.261Z,0.50
2023-05-18T14:54:54.410Z,0.67
2023-05-18T14:57:23.674Z,0.73
2023-05-18T14:59:54.638Z,0.50
2023-05-18T15:02:22.880Z,0.80
2023-05-18T15:04:51.211Z,0.60
2023-05-18T15:07:19.552Z,0.80
2023-05-18T15:09:47.838Z,0.93
2023-05-18T15:12:17.160Z,0.53
2023-05-18T15:14:45.597Z,0.63
2023-05-18T15:17:15.372Z,0.70
2023-05-18T15:19:43.587Z,0.60
2023-05-18T15:22:12.012Z,0.63
2023-05-18T15:24:40.337Z,0.53
2023-05-18T15:27:08.860Z,0.63
2023-05-18T15:29:37.279Z,0.60
2023-05-18T15:32:05.970Z,0.50
2023-05-18T15:34:35.757Z,0.80
2023-05-18T15:37:04.363Z,0.63
2023-05-18T15:39:32.559Z,0.60
2023-05-18T15:42:00.787Z,0.80
2023-05-18T15:44:29.868Z,0.80
2023-05-18T15:46:58.544Z,0.70
2023-05-18T15:49:26.738Z,0.60
2023-05-18T15:51:56.562Z,0.60
2023-05-18T15:54:24.805Z,0.60
2023-05-18T15:56:52.950Z,0.60
2023-05-18T15:59:21.385Z,1.03
2023-05-18T16:01:49.722Z,1.30
2023-05-18T16:04:18.087Z,0.90
2023-05-18T16:06:46.726Z,0.73
2023-05-18T16:09:16.482Z,1.30
2023-05-18T16:11:44.705Z,0.70
2023-05-18T16:14:12.957Z,0.90
2023-05-18T16:16:41.194Z,0.67
2023-05-18T16:19:09.458Z,0.90
2023-05-18T16:21:37.816Z,0.73
2023-05-18T16:24:06.943Z,0.57
2023-05-18T16:26:39.768Z,0.70
2023-05-18T16:29:08.539Z,0.80
2023-05-18T16:31:37.240Z,0.80
2023-05-18T16:34:05.743Z,0.70
2023-05-18T16:36:34.327Z,0.83
2023-05-18T16:39:03.027Z,0.70
2023-05-18T16:41:31.315Z,0.90
2023-05-18T16:44:01.176Z,0.90
2023-05-18T16:46:29.606Z,0.90
2023-05-18T16:48:57.934Z,0.60
2023-05-18T16:51:27.515Z,1.43
2023-05-18T16:53:55.954Z,0.80
2023-05-18T16:56:25.493Z,0.60
2023-05-18T16:58:53.913Z,0.67
2023-05-18T17:01:28.810Z,0.60
2023-05-18T17:03:57.854Z,0.63
2023-05-18T17:06:26.661Z,0.90
2023-05-18T17:08:58.244Z,1.20
2023-05-18T17:11:27.829Z,2.80
2023-05-18T17:13:57.719Z,0.80
2023-05-18T17:16:28.542Z,1.67
2023-05-18T17:18:57.867Z,1.57
2023-05-18T17:21:28.354Z,0.70
2023-05-18T17:23:56.874Z,1.10
2023-05-18T17:26:30.427Z,0.70
2023-05-18T17:28:58.857Z,0.97
2023-05-18T17:31:28.614Z,0.90
2023-05-18T17:33:56.917Z,1.00
2023-05-18T17:36:25.291Z,0.77
2023-05-18T17:38:53.667Z,0.63
2023-05-18T17:41:22.509Z,0.80
2023-05-18T17:43:50.786Z,0.90
2023-05-18T17:46:19.186Z,0.90
2023-05-18T17:48:49.087Z,0.80
2023-05-18T17:51:17.950Z,0.90
2023-05-18T17:53:46.218Z,0.80
2023-05-18T17:56:14.412Z,0.70
2023-05-18T17:58:42.705Z,0.60
2023-05-18T18:01:12.329Z,0.90
2023-05-18T18:03:41.663Z,0.60
2023-05-18T18:06:11.635Z,0.90
2023-05-18T18:08:39.867Z,0.70
2023-05-18T18:11:09.525Z,1.00
2023-05-18T18:13:38.250Z,0.90
2023-05-18T18:16:07.157Z,0.60
2023-05-18T18:18:36.746Z,0.80
2023-05-18T18:21:05.561Z,0.77
2023-05-18T18:23:35.855Z,1.10
2023-05-18T18:26:05.165Z,0.80
2023-05-18T18:28:34.272Z,1.10
2023-05-18T18:31:03.398Z,0.80
2023-05-18T18:33:32.753Z,0.90
2023-05-18T18:36:02.284Z,1.20
2023-05-18T18:38:30.608Z,1.30
2023-05-18T18:41:04.226Z,0.90
2023-05-18T18:43:32.866Z,0.90
2023-05-18T18:46:01.279Z,0.93
2023-05-18T18:48:29.566Z,1.03
2023-05-18T18:50:58.294Z,0.83
2023-05-18T18:53:26.590Z,1.03
2023-05-18T18:55:54.889Z,1.87
2023-05-18T18:58:24.648Z,0.90
2023-05-18T19:00:52.953Z,1.03
2023-05-18T19:03:21.904Z,1.30
2023-05-18T19:05:51.483Z,0.97
2023-05-18T19:08:19.661Z,0.83
2023-05-18T19:10:47.964Z,0.93
2023-05-18T19:13:16.151Z,1.30
2023-05-18T19:15:46.370Z,1.00
2023-05-18T19:18:14.913Z,1.00
2023-05-18T19:20:43.116Z,1.30
2023-05-18T19:23:11.485Z,1.00
2023-05-18T19:25:39.831Z,1.20
2023-05-18T19:28:08.132Z,1.23
2023-05-18T19:30:36.550Z,1.40
2023-05-18T19:33:06.240Z,1.30
2023-05-18T19:35:34.668Z,1.63
2023-05-18T19:38:03.410Z,1.17
2023-05-18T19:40:31.876Z,0.90
2023-05-18T19:43:01.584Z,1.20
2023-05-18T19:45:30.286Z,1.00
2023-05-18T19:47:58.755Z,1.00
2023-05-18T19:50:28.406Z,1.00
2023-05-18T19:52:56.561Z,1.10
2023-05-18T19:55:24.853Z,1.13
2023-05-18T19:57:53.066Z,1.10
2023-05-18T20:00:21.297Z,1.10
2023-05-18T20:02:49.669Z,0.83
2023-05-18T20:05:18.751Z,1.30
2023-05-18T20:07:48.638Z,1.20
2023-05-18T20:10:18.482Z,0.90
2023-05-18T20:12:46.678Z,1.47
2023-05-18T20:15:14.884Z,1.10
2023-05-18T20:17:43.744Z,1.10
2023-05-18T20:20:13.465Z,1.20
2023-05-18T20:22:41.790Z,1.00
2023-05-18T20:25:12.114Z,1.03
2023-05-18T20:27:40.369Z,1.03
2023-05-18T20:30:09.736Z,1.43
2023-05-18T20:32:38.016Z,0.80
2023-05-18T20:35:06.708Z,1.27
2023-05-18T20:37:35.164Z,1.37
2023-05-18T20:40:08.867Z,1.10
2023-05-18T20:42:40.738Z,1.10
2023-05-18T20:45:09.895Z,1.23
2023-05-18T20:47:38.126Z,2.00
2023-05-18T20:50:07.514Z,1.37
2023-05-18T20:52:36.200Z,1.20
2023-05-18T20:55:04.557Z,1.20
2023-05-18T20:57:32.816Z,1.57
2023-05-18T21:00:02.957Z,1.23
2023-05-18T21:02:33.179Z,1.13
2023-05-18T21:05:04.467Z,1.53
2023-05-18T21:07:33.348Z,1.13
2023-05-18T21:10:04.125Z,1.30
2023-05-18T21:12:32.549Z,1.47
2023-05-18T21:15:02.309Z,1.33
2023-05-18T21:17:30.680Z,1.67
2023-05-18T21:19:59.037Z,1.57
2023-05-18T21:22:27.375Z,1.30
2023-05-18T21:24:55.577Z,1.50
2023-05-18T21:27:23.946Z,1.50
2023-05-18T21:29:52.162Z,1.30
2023-05-18T21:32:24.616Z,1.80
2023-05-18T21:34:53.179Z,1.57
2023-05-18T21:37:22.143Z,1.67
2023-05-18T21:39:50.387Z,1.17
2023-05-18T21:42:18.825Z,1.20
2023-05-18T21:44:46.935Z,1.40
2023-05-18T21:47:15.399Z,1.40
2023-05-18T21:49:45.228Z,1.57
2023-05-18T21:52:15.572Z,1.27
2023-05-18T21:54:43.907Z,1.30
2023-05-18T21:57:12.331Z,1.60
2023-05-18T21:59:40.597Z,1.40
2023-05-18T22:02:08.910Z,1.20
2023-05-18T22:04:37.223Z,1.37
2023-05-18T22:07:06.932Z,1.40
2023-05-18T22:09:35.266Z,1.17
2023-05-18T22:12:03.506Z,1.20
2023-05-18T22:14:32.036Z,1.57
2023-05-18T22:17:00.384Z,1.37
2023-05-18T22:19:28.776Z,1.40
2023-05-18T22:21:56.929Z,1.30
2023-05-18T22:24:26.588Z,1.13
2023-05-18T22:26:54.861Z,1.50
2023-05-18T22:29:23.230Z,1.23
2023-05-18T22:31:51.716Z,1.50
2023-05-18T22:34:19.856Z,1.60
2023-05-18T22:36:47.993Z,1.10
2023-05-18T22:39:17.258Z,1.43
2023-05-18T22:41:46.933Z,1.40
2023-05-18T22:44:15.179Z,1.57
2023-05-18T22:46:43.535Z,1.43
2023-05-18T22:49:12.174Z,1.23
2023-05-18T22:51:40.880Z,1.43
2023-05-18T22:54:09.212Z,1.57
2023-05-18T22:56:37.418Z,1.43
2023-05-18T22:59:10.275Z,1.43
2023-05-18T23:01:39.021Z,1.30
2023-05-18T23:04:07.534Z,1.20
2023-05-18T23:06:35.705Z,1.60
2023-05-18T23:09:04.042Z,1.30
2023-05-18T23:11:35.003Z,1.70
2023-05-18T23:14:03.199Z,1.33
2023-05-18T23:16:32.971Z,1.07
2023-05-18T23:19:02.237Z,1.40
2023-05-18T23:21:31.407Z,1.83
2023-05-18T23:23:59.826Z,1.30
2023-05-18T23:26:28.083Z,1.30
2023-05-18T23:28:56.279Z,1.60
2023-05-18T23:31:24.621Z,1.53
2023-05-18T23:33:54.940Z,1.70
2023-05-18T23:36:27.173Z,1.47
2023-05-18T23:38:59.063Z,1.63
2023-05-18T23:41:28.077Z,1.53
2023-05-18T23:43:57.270Z,1.40
2023-05-18T23:46:26.174Z,1.57
2023-05-18T23:48:57.872Z,1.30
2023-05-18T23:51:27.721Z,1.67
2023-05-18T23:53:56.566Z,1.10
2023-05-18T23:56:25.300Z,1.53
2023-05-18T23:58:54.070Z,1.50
